Time;durP1;ratioP1;P1;durP2;ratioP2;P2;SDS_P1;SDS_P2;PMS_P1;PMS_P2;Temp;Humidity;BMP_temperature;BMP_pressure;BME280_temperature;BME280_humidity;BME280_pressure;Samples;Min_cycle;Max_cycle;Signal;HPM_P1;HPM_P2
2022/07/18 00:01:10;;;;;;;0.80;0.33;;;22.90;99.90;;;;;;4962338;28;20549;-70
2022/07/18 00:03:38;;;;;;;0.70;0.20;;;22.90;99.90;;;;;;4964339;28;20439;-70
2022/07/18 00:06:06;;;;;;;0.70;0.10;;;22.90;99.90;;;;;;4964310;28;20899;-69
2022/07/18 00:08:35;;;;;;;0.70;0.20;;;22.90;99.90;;;;;;4963889;28;21094;-70
2022/07/18 00:11:03;;;;;;;0.70;0.10;;;22.90;99.90;;;;;;4964203;28;20455;-69
2022/07/18 00:13:31;;;;;;;0.70;0.20;;;22.80;99.90;;;;;;4962668;28;20977;-69
2022/07/18 00:16:02;;;;;;;0.70;0.20;;;22.80;99.90;;;;;;4963975;28;20446;-69
2022/07/18 00:18:30;;;;;;;0.70;0.20;;;22.80;99.90;;;;;;4959324;28;20543;-71
2022/07/18 00:20:58;;;;;;;0.70;0.10;;;22.80;99.90;;;;;;4973407;28;20474;-73
2022/07/18 00:23:26;;;;;;;0.70;0.30;;;22.80;99.90;;;;;;4973828;28;20457;-70
2022/07/18 00:25:55;;;;;;;0.70;0.10;;;22.70;99.90;;;;;;4973744;28;20456;-69
2022/07/18 00:28:24;;;;;;;0.70;0.20;;;;;;;;;;4964115;28;20530;-70
2022/07/18 00:30:51;;;;;;;0.70;0.10;;;22.70;99.90;;;;;;4954536;29;20467;-70
2022/07/18 00:33:19;;;;;;;0.70;0.10;;;22.60;99.90;;;;;;4952255;29;20929;-71
2022/07/18 00:35:47;;;;;;;0.70;0.20;;;22.70;99.90;;;;;;4954212;29;20461;-69
2022/07/18 00:38:15;;;;;;;0.70;0.10;;;22.60;99.90;;;;;;4945762;29;21005;-70
2022/07/18 00:40:43;;;;;;;0.70;0.10;;;22.60;99.90;;;;;;4935176;29;20987;-71
2022/07/18 00:43:15;;;;;;;0.70;0.20;;;22.60;99.90;;;;;;4935266;29;20451;-70
2022/07/18 00:45:45;;;;;;;0.70;0.10;;;22.60;99.90;;;;;;4934835;29;20448;-70
2022/07/18 00:48:14;;;;;;;0.70;0.10;;;22.50;99.90;;;;;;4949956;29;20535;-70
2022/07/18 00:50:43;;;;;;;0.70;0.20;;;22.50;99.90;;;;;;4953908;29;20470;-71
2022/07/18 00:53:11;;;;;;;0.70;0.27;;;22.40;99.90;;;;;;4954190;29;20447;-70
2022/07/18 00:55:40;;;;;;;0.70;0.10;;;22.40;99.90;;;;;;4953745;29;20538;-71
2022/07/18 00:58:08;;;;;;;0.70;0.10;;;22.40;99.90;;;;;;4953502;29;20494;-70
2022/07/18 01:03:24;;;;;;;0.70;0.10;;;22.30;99.90;;;;;;4954069;29;20446;-70
2022/07/18 01:05:53;;;;;;;0.70;0.10;;;22.30;99.90;;;;;;4953841;29;20450;-69
2022/07/18 01:08:21;;;;;;;0.70;0.10;;;22.20;99.90;;;;;;4946537;29;20447;-69
2022/07/18 01:10:50;;;;;;;0.70;0.20;;;22.20;99.90;;;;;;4934437;29;20468;-68
2022/07/18 01:13:18;;;;;;;0.70;0.10;;;22.20;99.90;;;;;;4934877;29;20507;-70
2022/07/18 01:15:47;;;;;;;0.70;0.10;;;22.20;99.90;;;;;;4942916;29;20451;-70
2022/07/18 01:18:15;;;;;;;0.70;0.10;;;22.10;99.90;;;;;;4953153;29;20482;-70
2022/07/18 01:20:44;;;;;;;0.70;0.20;;;22.10;99.90;;;;;;4953119;29;20565;-69
2022/07/18 01:23:12;;;;;;;0.70;0.17;;;22.10;99.90;;;;;;4953899;29;21056;-69
2022/07/18 01:25:40;;;;;;;0.70;0.10;;;22.10;99.90;;;;;;4953693;29;21047;-71
2022/07/18 01:28:08;;;;;;;0.70;0.10;;;22.10;99.90;;;;;;4953589;29;20447;-70
2022/07/18 01:30:36;;;;;;;0.70;0.10;;;22.00;99.90;;;;;;4952940;29;20478;-70
2022/07/18 01:33:04;;;;;;;0.70;0.10;;;22.00;99.90;;;;;;4953724;29;20584;-70
2022/07/18 01:35:33;;;;;;;0.70;0.10;;;22.00;99.90;;;;;;4953567;29;20546;-72
2022/07/18 01:38:03;;;;;;;0.70;0.20;;;22.00;99.90;;;;;;4953238;29;20490;-71
2022/07/18 01:40:31;;;;;;;0.70;0.20;;;21.90;99.90;;;;;;4953547;29;20474;-71
2022/07/18 01:42:59;;;;;;;0.70;0.10;;;21.90;99.90;;;;;;4953311;29;20447;-71
2022/07/18 01:45:27;;;;;;;0.70;0.10;;;21.90;99.90;;;;;;4934453;29;20456;-71
2022/07/18 01:47:55;;;;;;;0.70;0.10;;;21.90;99.90;;;;;;4934124;29;20458;-72
2022/07/18 01:50:23;;;;;;;0.70;0.20;;;21.80;99.90;;;;;;4934032;29;20479;-71
2022/07/18 01:52:51;;;;;;;0.70;0.10;;;21.90;99.90;;;;;;4934657;29;20454;-71
2022/07/18 01:55:20;;;;;;;0.70;0.20;;;21.90;99.90;;;;;;4934217;29;20454;-71
2022/07/18 01:57:48;;;;;;;0.70;0.20;;;21.90;99.90;;;;;;4937798;29;20447;-69
2022/07/18 02:00:16;;;;;;;0.70;0.20;;;21.90;99.90;;;;;;4953113;29;21020;-71
2022/07/18 02:02:44;;;;;;;0.70;0.10;;;21.90;99.90;;;;;;4953100;29;20457;-71
2022/07/18 02:05:12;;;;;;;0.70;0.10;;;21.90;99.90;;;;;;4952916;29;20991;-70
2022/07/18 02:07:42;;;;;;;0.70;0.20;;;21.80;99.90;;;;;;4952703;29;20933;-71
2022/07/18 02:10:12;;;;;;;0.70;0.10;;;21.70;99.90;;;;;;4953132;29;20467;-71
2022/07/18 02:12:41;;;;;;;0.70;0.20;;;21.70;99.90;;;;;;4943697;29;20463;-70
2022/07/18 02:15:11;;;;;;;0.70;0.23;;;21.60;99.90;;;;;;4949827;29;20624;-71
2022/07/18 02:17:40;;;;;;;0.70;0.20;;;21.50;99.90;;;;;;4952617;29;20949;-71
2022/07/18 02:20:10;;;;;;;0.70;0.20;;;21.50;99.90;;;;;;4952862;29;20490;-70
2022/07/18 02:22:38;;;;;;;0.70;0.20;;;21.50;99.90;;;;;;4953087;29;20451;-71
2022/07/18 02:25:07;;;;;;;0.70;0.17;;;21.40;99.90;;;;;;4953076;29;20447;-71
2022/07/18 02:27:35;;;;;;;0.70;0.20;;;21.40;99.90;;;;;;4952084;29;20442;-71
2022/07/18 02:30:08;;;;;;;0.70;0.10;;;21.40;99.90;;;;;;4953081;28;21014;-70
2022/07/18 02:32:37;;;;;;;0.70;0.40;;;21.30;99.90;;;;;;4956429;29;20538;-71
2022/07/18 02:35:07;;;;;;;0.70;0.20;;;21.40;99.90;;;;;;4956480;29;20534;-69
2022/07/18 02:37:37;;;;;;;0.70;0.20;;;21.40;99.90;;;;;;4956030;29;21085;-71
2022/07/18 02:40:07;;;;;;;0.70;0.20;;;21.20;99.90;;;;;;4955957;29;20490;-70
2022/07/18 02:42:36;;;;;;;0.70;0.20;;;21.10;99.90;;;;;;4941973;29;20836;-69
2022/07/18 02:45:06;;;;;;;0.70;0.10;;;21.10;99.90;;;;;;4936724;29;20966;-71
2022/07/18 02:47:34;;;;;;;0.70;0.10;;;21.10;99.90;;;;;;4936724;29;20451;-71
2022/07/18 02:50:02;;;;;;;0.70;0.10;;;21.00;99.90;;;;;;4936781;29;20448;-71
2022/07/18 02:52:30;;;;;;;0.70;0.20;;;21.00;99.90;;;;;;4936919;29;20814;-71
2022/07/18 02:55:00;;;;;;;0.70;0.10;;;20.90;99.90;;;;;;4936369;29;20448;-71
2022/07/18 02:57:28;;;;;;;0.70;0.20;;;20.90;99.90;;;;;;4955561;29;20451;-70
2022/07/18 02:59:56;;;;;;;0.70;0.10;;;20.80;99.90;;;;;;4955680;29;20478;-70
2022/07/18 03:02:26;;;;;;;0.70;0.20;;;20.80;99.90;;;;;;4955801;29;20549;-71
2022/07/18 03:04:54;;;;;;;0.70;0.20;;;20.80;99.90;;;;;;4955703;29;20455;-71
2022/07/18 03:07:21;;;;;;;0.70;0.10;;;20.90;99.90;;;;;;4955403;29;20451;-71
2022/07/18 03:09:50;;;;;;;0.70;0.20;;;21.00;99.90;;;;;;4950728;29;20947;-70
2022/07/18 03:12:18;;;;;;;0.70;0.10;;;20.90;99.90;;;;;;4937032;29;20451;-69
2022/07/18 03:14:47;;;;;;;0.70;0.20;;;21.00;99.90;;;;;;4936461;29;20447;-69
2022/07/18 03:17:15;;;;;;;0.70;0.10;;;21.00;99.90;;;;;;4936248;29;20448;-70
2022/07/18 03:19:44;;;;;;;0.70;0.20;;;20.90;99.90;;;;;;4936166;29;20504;-71
2022/07/18 03:22:12;;;;;;;0.70;0.20;;;20.90;99.90;;;;;;4936074;29;20440;-72
2022/07/18 03:24:40;;;;;;;0.70;0.10;;;20.90;99.90;;;;;;4945709;29;20447;-70
2022/07/18 03:27:08;;;;;;;0.70;0.20;;;20.90;99.90;;;;;;4955277;29;20451;-70
2022/07/18 03:29:36;;;;;;;0.70;0.10;;;20.90;99.90;;;;;;4955223;29;20439;-71
2022/07/18 03:32:04;;;;;;;0.60;0.10;;;20.80;99.90;;;;;;4955234;29;20459;-71
2022/07/18 03:34:32;;;;;;;0.70;0.10;;;20.80;99.90;;;;;;4955036;29;20445;-71
2022/07/18 03:37:01;;;;;;;0.70;0.10;;;20.80;99.90;;;;;;4955203;29;20443;-71
2022/07/18 03:39:29;;;;;;;0.70;0.10;;;20.80;99.90;;;;;;4954461;29;20487;-71
2022/07/18 03:41:57;;;;;;;0.70;0.10;;;20.70;99.90;;;;;;4954492;28;20478;-70
2022/07/18 03:44:25;;;;;;;0.70;0.20;;;20.70;99.90;;;;;;4954860;29;20463;-71
2022/07/18 03:46:53;;;;;;;0.80;0.20;;;20.70;99.90;;;;;;4954920;29;20486;-71
2022/07/18 03:49:21;;;;;;;0.70;0.10;;;20.70;99.90;;;;;;4954741;29;20443;-70
2022/07/18 03:51:49;;;;;;;0.70;0.20;;;20.60;99.90;;;;;;4954615;29;20479;-70
2022/07/18 03:54:18;;;;;;;0.70;0.20;;;20.50;99.90;;;;;;4952110;29;20482;-72
2022/07/18 03:56:46;;;;;;;0.70;0.10;;;20.50;99.90;;;;;;4954681;29;20493;-71
2022/07/18 03:59:14;;;;;;;0.70;0.20;;;20.50;99.90;;;;;;4954776;29;20559;-70
2022/07/18 04:01:42;;;;;;;0.70;0.10;;;20.50;99.90;;;;;;4954828;29;20467;-69
2022/07/18 04:04:10;;;;;;;0.70;0.23;;;20.50;99.90;;;;;;4955493;29;20459;-70
2022/07/18 04:06:38;;;;;;;0.60;0.10;;;20.50;99.90;;;;;;4949691;29;20563;-70
2022/07/18 04:09:05;;;;;;;0.70;0.10;;;20.50;99.90;;;;;;4935584;29;20456;-70
2022/07/18 04:11:35;;;;;;;0.70;0.10;;;20.40;99.90;;;;;;4935607;29;20463;-71
2022/07/18 04:14:03;;;;;;;0.70;0.10;;;20.40;99.90;;;;;;4935332;29;20452;-70
2022/07/18 04:16:31;;;;;;;0.70;0.10;;;20.40;99.90;;;;;;4935425;29;20931;-71
2022/07/18 04:18:59;;;;;;;0.70;0.10;;;20.40;99.90;;;;;;4935453;29;20448;-71
2022/07/18 04:21:27;;;;;;;0.70;0.20;;;20.40;99.90;;;;;;4944892;29;20855;-71
2022/07/18 04:23:55;;;;;;;0.70;0.10;;;;;;;;;;4954472;29;20458;-70
2022/07/18 04:26:23;;;;;;;0.70;0.10;;;20.40;99.90;;;;;;4954295;29;20451;-69
2022/07/18 04:28:52;;;;;;;0.67;0.10;;;20.40;99.90;;;;;;4954021;29;20498;-70
2022/07/18 04:31:20;;;;;;;0.70;0.17;;;20.40;99.90;;;;;;4948541;29;20485;-71
2022/07/18 04:33:50;;;;;;;0.70;0.10;;;20.40;99.90;;;;;;4953466;29;20454;-70
2022/07/18 04:36:18;;;;;;;0.60;0.10;;;20.50;99.90;;;;;;4952864;29;20942;-70
2022/07/18 04:38:46;;;;;;;0.70;0.20;;;20.60;99.90;;;;;;4951095;29;20506;-73
2022/07/18 04:41:14;;;;;;;0.70;0.20;;;20.70;99.90;;;;;;4948322;29;20864;-70
2022/07/18 04:43:42;;;;;;;0.70;0.20;;;20.70;99.90;;;;;;4946135;29;20453;-71
2022/07/18 04:46:12;;;;;;;0.70;0.10;;;20.70;99.90;;;;;;4953675;29;20447;-71
2022/07/18 04:48:40;;;;;;;0.67;0.13;;;20.80;99.90;;;;;;4947461;29;20470;-69
2022/07/18 04:51:08;;;;;;;0.70;0.20;;;20.90;99.90;;;;;;4949792;29;20466;-71
2022/07/18 04:53:36;;;;;;;0.70;0.20;;;21.00;99.90;;;;;;4953171;28;20444;-71
2022/07/18 04:56:05;;;;;;;0.70;0.10;;;21.10;99.90;;;;;;4953732;29;20501;-71
2022/07/18 04:58:33;;;;;;;0.70;0.20;;;21.20;99.90;;;;;;4954033;29;21028;-69
2022/07/18 05:01:01;;;;;;;0.70;0.13;;;21.30;99.90;;;;;;4954485;29;20501;-71
2022/07/18 05:03:30;;;;;;;0.70;0.20;;;21.30;99.90;;;;;;4948544;29;20543;-71
2022/07/18 05:05:58;;;;;;;0.70;0.20;;;21.30;99.90;;;;;;4935287;29;20455;-71
2022/07/18 05:08:26;;;;;;;0.70;0.20;;;21.40;99.90;;;;;;4935463;29;20448;-72
2022/07/18 05:10:54;;;;;;;0.70;0.10;;;21.30;99.90;;;;;;4934768;29;20468;-71
2022/07/18 05:13:22;;;;;;;0.70;0.10;;;21.30;99.90;;;;;;4934640;29;20452;-71
2022/07/18 05:15:51;;;;;;;0.70;0.10;;;21.30;99.90;;;;;;4934933;29;20452;-72
2022/07/18 05:18:19;;;;;;;1.13;1.03;;;21.30;99.90;;;;;;4935187;29;20467;-72
2022/07/18 05:20:49;;;;;;;0.70;0.17;;;21.30;99.90;;;;;;4935425;29;20488;-70
2022/07/18 05:23:17;;;;;;;0.70;0.20;;;21.30;99.90;;;;;;4952990;29;20457;-69
2022/07/18 05:25:45;;;;;;;0.70;0.20;;;21.30;99.90;;;;;;4953884;29;20453;-70
2022/07/18 05:28:12;;;;;;;0.70;0.10;;;21.30;99.90;;;;;;4953776;29;20447;-70
2022/07/18 05:30:40;;;;;;;0.70;0.10;;;21.30;99.90;;;;;;4953825;29;20477;-69
2022/07/18 05:33:08;;;;;;;0.70;0.10;;;21.30;99.90;;;;;;4953371;29;20485;-70
2022/07/18 05:35:36;;;;;;;0.80;0.30;;;21.30;99.90;;;;;;4952708;29;20457;-71
2022/07/18 05:38:06;;;;;;;0.70;0.20;;;21.30;99.90;;;;;;4949029;29;20471;-70
2022/07/18 05:40:34;;;;;;;0.70;0.20;;;21.40;99.90;;;;;;4951892;29;20479;-67
2022/07/18 05:43:03;;;;;;;0.70;0.10;;;;;;;;;;4952956;29;20510;-73
2022/07/18 05:45:31;;;;;;;0.70;0.20;;;21.50;99.90;;;;;;4953368;29;20533;-70
2022/07/18 05:47:59;;;;;;;0.70;0.10;;;21.50;99.90;;;;;;4950574;28;20462;-70
2022/07/18 05:50:27;;;;;;;0.70;0.13;;;21.60;99.90;;;;;;4939372;29;20486;-69
2022/07/18 05:52:56;;;;;;;0.70;0.10;;;21.60;99.90;;;;;;4952620;29;20475;-67
2022/07/18 05:55:25;;;;;;;0.70;0.10;;;21.60;99.90;;;;;;4953212;29;20443;-68
2022/07/18 05:57:53;;;;;;;0.70;0.20;;;21.50;99.90;;;;;;4951443;29;20457;-72
2022/07/18 06:00:21;;;;;;;0.70;0.20;;;21.50;99.90;;;;;;4952910;29;20462;-68
2022/07/18 06:02:50;;;;;;;0.70;0.10;;;21.50;99.90;;;;;;4952249;29;20514;-70
2022/07/18 06:05:19;;;;;;;0.70;0.20;;;21.40;99.90;;;;;;4942538;28;20448;-68
2022/07/18 06:07:51;;;;;;;0.70;0.20;;;21.40;99.90;;;;;;4942547;29;20955;-71
2022/07/18 06:10:20;;;;;;;0.70;0.10;;;21.50;99.90;;;;;;4955951;29;20887;-70
2022/07/18 06:12:51;;;;;;;0.70;0.20;;;21.50;99.90;;;;;;4956867;29;20497;-68
2022/07/18 06:15:19;;;;;;;0.70;0.17;;;21.50;99.90;;;;;;4956477;29;20890;-68
2022/07/18 06:17:47;;;;;;;2.50;0.40;;;21.60;99.90;;;;;;4956218;29;20889;-68
2022/07/18 06:20:15;;;;;;;0.70;0.10;;;21.70;99.90;;;;;;4951145;29;20499;-67
2022/07/18 06:22:43;;;;;;;0.70;0.10;;;;;;;;;;4938352;29;20973;-71
2022/07/18 06:25:12;;;;;;;0.70;0.20;;;21.70;99.90;;;;;;4937873;29;20443;-71
2022/07/18 06:27:40;;;;;;;0.70;0.10;;;21.70;99.90;;;;;;4957513;28;20961;-71
2022/07/18 06:30:11;;;;;;;0.70;0.10;;;;;;;;;;4966584;28;20478;-70
2022/07/18 06:32:39;;;;;;;0.70;0.20;;;21.80;99.90;;;;;;4966530;28;20451;-71
2022/07/18 06:35:08;;;;;;;0.70;0.10;;;21.90;99.90;;;;;;4966234;28;20538;-71
2022/07/18 06:37:36;;;;;;;0.70;0.10;;;21.90;99.90;;;;;;4963002;28;20534;-70
2022/07/18 06:40:06;;;;;;;0.70;0.10;;;22.00;99.90;;;;;;4962310;28;20504;-74
2022/07/18 06:42:34;;;;;;;0.70;0.17;;;22.00;99.90;;;;;;4966664;28;20509;-70
2022/07/18 06:45:03;;;;;;;0.70;0.20;;;22.00;99.90;;;;;;4969055;28;20538;-72
2022/07/18 06:47:43;;;;;;;0.70;0.10;;;22.10;99.90;;;;;;4976614;28;20488;-72
2022/07/18 06:50:12;;;;;;;0.70;0.10;;;;;;;;;;4976811;28;20965;-70
2022/07/18 06:52:41;;;;;;;0.70;0.20;;;22.20;99.90;;;;;;4967381;28;20578;-70
2022/07/18 06:55:11;;;;;;;0.70;0.10;;;22.30;99.90;;;;;;4937794;29;20452;-70
2022/07/18 06:57:39;;;;;;;0.70;0.10;;;22.40;99.90;;;;;;4937511;29;20452;-71
2022/07/18 07:00:10;;;;;;;0.70;0.10;;;22.60;99.90;;;;;;4937831;28;20472;-70
2022/07/18 07:02:45;;;;;;;0.70;0.20;;;22.60;99.90;;;;;;4971786;28;20489;-70
2022/07/18 07:05:14;;;;;;;0.70;0.10;;;22.70;99.90;;;;;;4975720;28;20481;-71
2022/07/18 07:07:42;;;;;;;0.70;0.20;;;22.80;99.90;;;;;;4976113;28;20500;-69
2022/07/18 07:10:16;;;;;;;0.70;0.10;;;23.00;99.90;;;;;;4969201;28;20477;-71
2022/07/18 07:12:47;;;;;;;0.70;0.10;;;23.00;99.90;;;;;;4956065;29;20807;-68
2022/07/18 07:15:16;;;;;;;0.70;0.20;;;23.10;99.90;;;;;;4956234;29;20475;-67
2022/07/18 07:17:46;;;;;;;0.70;0.20;;;;;;;;;;4954690;28;20454;-67
2022/07/18 07:20:14;;;;;;;0.70;0.20;;;23.20;99.90;;;;;;4940587;29;20575;-67
2022/07/18 07:22:44;;;;;;;0.70;0.10;;;23.20;99.90;;;;;;4956129;29;20486;-66
2022/07/18 07:25:13;;;;;;;0.70;0.10;;;23.20;99.90;;;;;;4955576;28;20444;-68
2022/07/18 07:27:42;;;;;;;0.70;0.20;;;23.30;99.90;;;;;;4955434;29;20508;-68
2022/07/18 07:30:11;;;;;;;0.70;0.10;;;23.40;99.90;;;;;;4952146;28;20486;-68
2022/07/18 07:32:41;;;;;;;0.70;0.20;;;23.30;99.90;;;;;;4955032;29;20447;-67
2022/07/18 07:35:13;;;;;;;0.70;0.20;;;23.40;99.90;;;;;;4946325;29;20519;-67
2022/07/18 07:37:43;;;;;;;0.80;0.37;;;23.50;99.90;;;;;;4948675;29;20455;-68
2022/07/18 07:40:11;;;;;;;0.70;0.10;;;;;;;;;;4955280;29;20841;-67
2022/07/18 07:42:39;;;;;;;0.70;0.10;;;23.50;99.90;;;;;;4954733;29;21031;-66
2022/07/18 07:45:08;;;;;;;0.80;0.37;;;23.60;99.90;;;;;;4954947;29;20917;-69
2022/07/18 07:47:37;;;;;;;0.70;0.10;;;23.70;99.90;;;;;;4954756;29;20803;-68
2022/07/18 07:50:07;;;;;;;0.70;0.20;;;23.70;99.90;;;;;;4954732;29;20982;-68
2022/07/18 07:52:36;;;;;;;0.70;0.10;;;23.80;99.90;;;;;;4955718;28;20582;-72
2022/07/18 07:55:05;;;;;;;0.70;0.20;;;23.80;99.90;;;;;;4951575;28;20543;-72
2022/07/18 07:57:35;;;;;;;0.70;0.10;;;23.90;99.90;;;;;;4957579;28;20453;-75
2022/07/18 08:00:07;;;;;;;0.70;0.20;;;24.10;99.90;;;;;;4955167;29;20530;-73
2022/07/18 08:02:35;;;;;;;0.70;0.20;;;24.10;99.90;;;;;;4955323;29;20486;-72
2022/07/18 08:05:03;;;;;;;0.70;0.20;;;24.20;99.90;;;;;;4955931;29;20457;-73
2022/07/18 08:07:31;;;;;;;0.70;0.20;;;24.20;99.90;;;;;;4954558;29;20457;-72
2022/07/18 08:10:00;;;;;;;0.70;0.10;;;24.30;99.90;;;;;;4955114;29;20470;-72
2022/07/18 08:12:28;;;;;;;0.70;0.20;;;24.30;99.90;;;;;;4935554;29;20731;-72
2022/07/18 08:14:56;;;;;;;0.70;0.10;;;24.40;99.90;;;;;;4951156;28;20834;-72
2022/07/18 08:17:24;;;;;;;0.70;0.20;;;24.40;99.90;;;;;;4954280;28;20453;-72
2022/07/18 08:19:52;;;;;;;0.70;0.10;;;24.50;99.90;;;;;;4951667;29;20462;-72
2022/07/18 08:22:20;;;;;;;0.70;0.20;;;24.50;99.90;;;;;;4954758;29;20493;-71
2022/07/18 08:24:48;;;;;;;0.80;0.40;;;24.70;99.90;;;;;;4954687;28;20477;-72
2022/07/18 08:27:17;;;;;;;0.70;0.10;;;24.70;99.90;;;;;;4960099;28;20971;-71
2022/07/18 08:29:45;;;;;;;0.70;0.10;;;24.80;99.90;;;;;;4963785;28;20524;-72
2022/07/18 08:32:34;;;;;;;0.70;0.20;;;24.80;99.90;;;;;;4970465;28;20471;-72
2022/07/18 08:35:02;;;;;;;0.70;0.10;;;24.80;99.90;;;;;;4962648;28;20949;-71
2022/07/18 08:37:30;;;;;;;0.70;0.20;;;24.90;99.90;;;;;;4960253;28;20543;-71
2022/07/18 08:39:58;;;;;;;0.70;0.20;;;24.90;99.90;;;;;;4963035;28;20525;-72
2022/07/18 08:42:29;;;;;;;0.70;0.10;;;24.90;99.90;;;;;;4954338;29;20481;-72
2022/07/18 08:44:57;;;;;;;0.70;0.10;;;24.90;99.90;;;;;;4952963;29;20451;-72
2022/07/18 08:47:28;;;;;;;1.00;0.73;;;25.10;99.90;;;;;;4952808;29;20521;-72
2022/07/18 08:49:57;;;;;;;0.70;0.13;;;25.20;99.90;;;;;;4957891;28;20473;-72
2022/07/18 08:52:25;;;;;;;0.70;0.10;;;25.20;99.90;;;;;;4952551;29;20528;-72
2022/07/18 08:55:14;;;;;;;0.70;0.10;;;25.30;99.90;;;;;;4950948;29;20961;-71
2022/07/18 08:57:53;;;;;;;0.70;0.20;;;25.30;99.90;;;;;;4949899;29;20455;-71
2022/07/18 09:00:22;;;;;;;0.70;0.10;;;25.40;99.90;;;;;;4960860;28;20487;-72
2022/07/18 09:02:59;;;;;;;0.70;0.10;;;25.40;99.90;;;;;;4954356;28;20562;-73
2022/07/18 09:05:27;;;;;;;0.70;0.20;;;25.50;99.90;;;;;;4957616;28;20514;-72
2022/07/18 09:08:12;;;;;;;0.70;0.20;;;25.50;99.90;;;;;;4949537;28;20463;-72
2022/07/18 09:10:47;;;;;;;0.70;0.10;;;25.70;99.90;;;;;;4956170;28;20459;-72
2022/07/18 09:13:17;;;;;;;0.70;0.20;;;25.80;99.90;;;;;;4955244;28;20459;-71
2022/07/18 09:16:00;;;;;;;0.70;0.20;;;25.90;99.90;;;;;;4953616;29;20985;-73
2022/07/18 09:18:28;;;;;;;0.70;0.20;;;26.00;99.90;;;;;;4953625;29;20451;-72
2022/07/18 09:21:06;;;;;;;0.70;0.10;;;26.10;99.90;;;;;;4953454;29;20493;-73
2022/07/18 09:23:36;;;;;;;0.70;0.20;;;26.20;99.90;;;;;;4953238;29;20577;-73
2022/07/18 09:26:04;;;;;;;0.70;0.20;;;26.30;99.90;;;;;;4951396;29;20967;-72
2022/07/18 09:28:48;;;;;;;0.70;0.10;;;26.50;99.90;;;;;;4950265;29;20469;-73
2022/07/18 09:31:36;;;;;;;0.70;0.20;;;26.50;99.90;;;;;;4950937;29;20487;-73
2022/07/18 09:34:05;;;;;;;0.70;0.17;;;26.60;99.90;;;;;;4948279;29;20478;-73
2022/07/18 09:36:36;;;;;;;0.70;0.20;;;26.70;99.90;;;;;;4948825;29;20459;-73
2022/07/18 09:39:18;;;;;;;0.70;0.20;;;26.80;99.90;;;;;;4950037;29;20552;-71
2022/07/18 09:41:46;;;;;;;0.70;0.10;;;26.90;99.90;;;;;;4954723;29;20466;-73
2022/07/18 09:44:20;;;;;;;0.70;0.20;;;27.00;99.90;;;;;;4950801;29;20885;-72
2022/07/18 09:47:00;;;;;;;0.70;0.20;;;27.10;99.90;;;;;;4953494;29;20537;-73
2022/07/18 09:49:30;;;;;;;0.70;0.20;;;27.20;99.90;;;;;;4957136;29;20564;-72
2022/07/18 09:52:03;;;;;;;0.70;0.10;;;27.30;99.90;;;;;;4957419;29;20486;-72
2022/07/18 09:54:37;;;;;;;0.70;0.20;;;27.50;99.90;;;;;;4958191;28;20993;-72
2022/07/18 09:57:05;;;;;;;0.70;0.17;;;27.50;99.90;;;;;;4956632;28;20467;-72
2022/07/18 09:59:35;;;;;;;0.70;0.10;;;27.60;99.90;;;;;;4955727;29;20489;-72
2022/07/18 10:02:03;;;;;;;0.70;0.10;;;27.70;99.90;;;;;;4950902;29;20475;-72
2022/07/18 10:04:32;;;;;;;0.70;0.10;;;27.70;99.90;;;;;;4955411;28;20639;-73
2022/07/18 10:07:00;;;;;;;0.70;0.20;;;27.80;99.90;;;;;;4952299;29;20451;-72
2022/07/18 10:09:28;;;;;;;0.70;0.10;;;27.90;99.90;;;;;;4949020;29;20465;-72
2022/07/18 10:11:57;;;;;;;0.70;0.20;;;28.00;99.90;;;;;;4959177;28;20459;-72
2022/07/18 10:14:30;;;;;;;0.70;0.10;;;28.00;99.90;;;;;;4956744;29;20439;-71
2022/07/18 10:17:00;;;;;;;0.70;0.20;;;28.10;99.90;;;;;;4945617;29;20923;-71
2022/07/18 10:19:28;;;;;;;0.70;0.20;;;;;;;;;;4953543;28;20477;-72
2022/07/18 10:21:58;;;;;;;0.70;0.10;;;28.20;99.90;;;;;;4954055;29;20490;-72
2022/07/18 10:24:27;;;;;;;0.80;0.33;;;28.30;99.90;;;;;;4956397;29;20485;-70
2022/07/18 10:27:21;;;;;;;0.70;0.20;;;28.40;99.90;;;;;;4960432;28;20891;-73
2022/07/18 10:30:08;;;;;;;0.87;0.17;;;28.40;99.90;;;;;;4934050;29;20489;-72
2022/07/18 10:32:37;;;;;;;0.70;0.20;;;28.50;99.90;;;;;;4953458;28;20447;-72
2022/07/18 10:35:06;;;;;;;2.30;2.20;;;;;;;;;;4953652;29;20447;-72
2022/07/18 10:37:35;;;;;;;0.70;0.10;;;28.70;99.90;;;;;;4956236;29;20521;-71
2022/07/18 10:40:19;;;;;;;0.70;0.17;;;;;;;;;;4956598;29;20853;-71
2022/07/18 10:43:07;;;;;;;0.70;0.20;;;28.90;99.90;;;;;;4956379;29;20447;-72
2022/07/18 10:45:45;;;;;;;0.70;0.13;;;29.00;99.90;;;;;;4956223;29;20514;-71
2022/07/18 10:48:52;;;;;;;0.70;0.20;;;29.10;99.90;;;;;;4956765;29;20550;-72
2022/07/18 10:51:20;;;;;;;0.80;0.27;;;29.10;99.90;;;;;;4953756;28;20471;-74
2022/07/18 10:54:12;;;;;;;0.70;0.10;;;29.10;99.90;;;;;;4956108;29;20817;-72
2022/07/18 10:57:09;;;;;;;0.70;0.17;;;29.10;99.90;;;;;;4949502;28;20463;-77
2022/07/18 10:59:58;;;;;;;0.70;0.20;;;29.20;99.90;;;;;;4957485;29;20454;-78
2022/07/18 11:02:35;;;;;;;0.70;0.10;;;29.40;99.90;;;;;;4957339;29;20824;-77
2022/07/18 11:05:35;;;;;;;0.70;0.20;;;29.30;99.90;;;;;;4957617;29;20570;-77
2022/07/18 11:08:20;;;;;;;0.70;0.20;;;29.40;99.90;;;;;;4957843;29;20451;-77
2022/07/18 11:11:21;;;;;;;0.70;0.20;;;29.50;99.90;;;;;;4956614;29;20471;-77
2022/07/18 11:13:52;;;;;;;0.70;0.20;;;29.60;99.90;;;;;;4952470;29;20465;-77
2022/07/18 11:16:23;;;;;;;0.70;0.10;;;29.70;99.90;;;;;;4958413;29;20444;-78
2022/07/18 11:19:20;;;;;;;0.70;0.30;;;29.90;99.90;;;;;;4961212;29;20443;-77
2022/07/18 11:22:00;;;;;;;0.70;0.10;;;30.00;99.90;;;;;;4952660;29;20490;-76
2022/07/18 11:24:28;;;;;;;0.90;0.67;;;29.90;99.90;;;;;;4962844;29;20541;-77
2022/07/18 11:26:56;;;;;;;0.70;0.20;;;30.00;99.90;;;;;;4963606;29;20502;-76
2022/07/18 11:29:24;;;;;;;0.70;0.20;;;30.00;99.90;;;;;;4961081;29;20451;-77
2022/07/18 11:31:54;;;;;;;0.70;0.20;;;30.10;99.90;;;;;;4962956;29;20474;-77
2022/07/18 11:34:22;;;;;;;0.70;0.20;;;30.30;99.90;;;;;;4957984;29;20781;-78
2022/07/18 11:37:08;;;;;;;0.70;0.20;;;30.40;99.90;;;;;;4956101;29;20446;-77
2022/07/18 11:39:36;;;;;;;0.70;0.20;;;30.40;99.90;;;;;;4956621;29;20529;-76
2022/07/18 11:42:04;;;;;;;0.70;0.17;;;30.60;99.90;;;;;;4952443;29;20491;-78
2022/07/18 11:44:33;;;;;;;0.70;0.10;;;30.50;99.90;;;;;;4951570;28;20950;-77
2022/07/18 11:47:05;;;;;;;0.70;0.10;;;30.70;99.90;;;;;;4949991;29;20467;-76
2022/07/18 11:49:34;;;;;;;0.70;0.17;;;30.70;99.90;;;;;;4954213;28;20471;-76
2022/07/18 11:52:02;;;;;;;0.70;0.20;;;30.80;99.90;;;;;;4958305;29;20471;-77
2022/07/18 11:54:32;;;;;;;0.70;0.20;;;30.90;99.90;;;;;;4956962;29;20447;-77
2022/07/18 11:57:01;;;;;;;0.70;0.10;;;;;;;;;;4958614;29;20571;-77
2022/07/18 11:59:40;;;;;;;0.70;0.20;;;31.20;99.90;;;;;;4959288;29;20874;-76
2022/07/18 12:02:08;;;;;;;0.70;0.20;;;31.20;99.90;;;;;;4958963;29;20494;-76
2022/07/18 12:04:37;;;;;;;0.70;0.20;;;31.20;99.90;;;;;;4955077;28;20490;-77
2022/07/18 12:07:28;;;;;;;0.70;0.10;;;31.40;99.90;;;;;;4959497;29;20621;-77
2022/07/18 12:10:15;;;;;;;0.87;0.20;;;31.40;99.90;;;;;;4920674;29;20511;-76
2022/07/18 12:12:43;;;;;;;0.70;0.20;;;31.40;99.90;;;;;;4942591;29;20460;-76
2022/07/18 12:15:12;;;;;;;0.70;0.20;;;;;;;;;;4954268;29;20469;-76
2022/07/18 12:17:45;;;;;;;0.70;0.20;;;31.40;99.90;;;;;;4961658;29;20506;-78
2022/07/18 12:20:15;;;;;;;0.70;0.20;;;31.40;99.90;;;;;;4957098;29;20490;-77
2022/07/18 12:23:07;;;;;;;0.70;0.10;;;;;;;;;;4954521;29;20490;-78
2022/07/18 12:25:39;;;;;;;0.73;0.27;;;31.40;99.90;;;;;;4957917;29;20483;-77
2022/07/18 12:28:15;;;;;;;0.70;0.10;;;31.40;99.90;;;;;;4954265;28;20463;-77
2022/07/18 12:30:43;;;;;;;0.70;0.20;;;;;;;;;;4939070;29;20473;-78
2022/07/18 12:33:12;;;;;;;0.70;0.20;;;31.40;99.90;;;;;;4939393;29;20507;-77
2022/07/18 12:35:40;;;;;;;0.70;0.10;;;31.40;99.90;;;;;;4938031;29;20448;-77
2022/07/18 12:38:11;;;;;;;0.70;0.17;;;31.50;99.90;;;;;;4939183;29;21019;-77
2022/07/18 12:40:44;;;;;;;0.70;0.20;;;31.50;99.90;;;;;;4939807;29;20464;-77
2022/07/18 12:43:13;;;;;;;0.80;0.40;;;31.50;99.90;;;;;;4938411;29;20506;-76
2022/07/18 12:45:43;;;;;;;0.70;0.20;;;31.60;99.90;;;;;;4936483;29;20487;-76
2022/07/18 12:48:13;;;;;;;0.70;0.20;;;31.60;99.90;;;;;;4936966;29;20451;-77
2022/07/18 12:50:44;;;;;;;0.70;0.20;;;31.60;99.90;;;;;;4936535;29;20479;-77
2022/07/18 12:53:13;;;;;;;0.70;0.20;;;31.70;99.90;;;;;;4940032;29;20463;-77
2022/07/18 12:55:42;;;;;;;0.70;0.20;;;31.70;99.90;;;;;;4948578;29;20455;-76
2022/07/18 12:58:10;;;;;;;0.70;0.20;;;31.80;99.90;;;;;;4951840;29;20824;-76
2022/07/18 13:00:40;;;;;;;0.70;0.10;;;31.90;99.90;;;;;;4955667;29;20463;-76
2022/07/18 13:03:08;;;;;;;0.70;0.20;;;31.90;99.90;;;;;;4955287;29;20448;-77
2022/07/18 13:05:36;;;;;;;0.70;0.20;;;31.90;99.90;;;;;;4957654;29;21071;-77
2022/07/18 13:08:06;;;;;;;0.70;0.20;;;31.90;99.90;;;;;;4957449;29;20447;-76
2022/07/18 13:10:34;;;;;;;0.70;0.20;;;32.00;99.90;;;;;;4957450;29;20478;-77
2022/07/18 13:13:04;;;;;;;0.70;0.20;;;32.00;99.90;;;;;;4955726;29;20467;-76